Time;durP1;ratioP1;P1;durP2;ratioP2;P2;SDS_P1;SDS_P2;PMS_P1;PMS_P2;Temp;Humidity;BMP_temperature;BMP_pressure;BME280_temperature;BME280_humidity;BME280_pressure;Samples;Min_cycle;Max_cycle;Signal;HPM_P1;HPM_P2
2022/09/12 00:00:57;;;;;;;8.23;2.37;;;;;;;18.81;71.01;100841.09;5059826;28;20283;-66
2022/09/12 00:03:36;;;;;;;4.93;2.37;;;;;;;19.15;69.03;100839.69;5061971;28;20287;-66
2022/09/12 00:06:26;;;;;;;5.53;2.30;;;;;;;19.35;68.10;100845.00;5060074;28;20382;-66
2022/09/12 00:09:09;;;;;;;64.73;5.67;;;;;;;19.04;67.21;100775.72;5027509;28;20337;-66
2022/09/12 00:12:02;;;;;;;43.77;5.43;;;;;;;19.56;66.97;100844.97;5081140;28;20367;-66
2022/09/12 00:14:38;;;;;;;17.20;3.30;;;;;;;19.66;66.51;100846.28;5071635;28;20342;-67
2022/09/12 00:17:36;;;;;;;53.50;4.70;;;;;;;19.69;65.81;100842.66;5081311;28;20333;-66
2022/09/12 00:20:18;;;;;;;13.93;3.13;;;;;;;19.36;64.28;100804.31;5081147;28;20290;-67
2022/09/12 00:23:00;;;;;;;10.57;2.73;;;;;;;19.77;64.23;100851.16;5071625;28;20291;-66
2022/09/12 00:25:51;;;;;;;29.27;3.80;;;;;;;19.71;64.12;100852.25;5078756;28;20480;-67
2022/09/12 00:28:28;;;;;;;12.33;3.53;;;;;;;19.71;62.59;100846.97;5080686;28;20596;-66
2022/09/12 00:31:07;;;;;;;29.63;5.03;;;;;;;19.78;62.94;100837.81;5080811;28;20289;-68
2022/09/12 00:33:55;;;;;;;31.37;4.07;;;;;;;19.89;63.74;100844.41;5080873;28;20222;-67
2022/09/12 00:36:43;;;;;;;18.27;3.43;;;;;;;19.89;63.19;100802.81;5081078;28;20389;-67
2022/09/12 00:39:28;;;;;;;16.13;3.10;;;;;;;20.21;62.05;100816.38;5081369;28;20358;-67
2022/09/12 00:42:13;;;;;;;11.57;3.60;;;;;;;20.47;62.18;100841.69;5081371;28;20358;-69
2022/09/12 00:44:57;;;;;;;13.60;3.57;;;;;;;20.55;61.39;100823.59;5050363;28;20499;-68
2022/09/12 00:47:50;;;;;;;11.50;2.97;;;;;;;20.81;60.99;100837.38;5081291;28;20289;-67
2022/09/12 00:50:36;;;;;;;112.30;9.93;;;;;;;20.92;61.14;100843.03;5081668;28;20302;-68
2022/09/12 00:53:14;;;;;;;18.23;3.00;;;;;;;20.89;59.09;100843.16;5080856;28;20329;-66
2022/09/12 00:56:09;;;;;;;9.47;3.40;;;;;;;20.79;58.74;100831.28;5080201;28;20580;-64
2022/09/12 00:58:53;;;;;;;19.10;3.57;;;;;;;20.69;59.24;100814.94;5081582;28;20302;-68
2022/09/12 01:01:45;;;;;;;19.20;3.30;;;;;;;20.60;59.54;100804.81;5039842;28;20358;-68
2022/09/12 01:04:33;;;;;;;15.93;4.70;;;;;;;20.59;59.71;100811.91;5080588;28;20464;-67
2022/09/12 01:07:15;;;;;;;16.73;3.03;;;;;;;20.56;59.11;100804.06;5080581;28;20075;-65
2022/09/12 01:09:55;;;;;;;18.97;3.93;;;;;;;20.76;59.57;100804.88;5080770;28;20290;-66
2022/09/12 01:12:38;;;;;;;48.07;5.57;;;;;;;21.01;58.75;100800.03;5080369;28;20336;-66
2022/09/12 01:15:24;;;;;;;12.27;3.33;;;;;;;21.04;58.69;100768.03;5080737;28;20295;-64
2022/09/12 01:18:11;;;;;;;47.47;6.60;;;;;;;21.54;59.22;100803.50;5080790;28;20293;-66
2022/09/12 01:21:14;;;;;;;74.07;7.77;;;;;;;21.70;58.07;100798.25;5080147;28;20370;-69
2022/09/12 01:24:23;;;;;;;18.07;3.83;;;;;;;21.89;57.62;100790.97;5080956;28;20321;-68
2022/09/12 01:30:53;;;;;;;16.63;3.63;;;;;;;22.18;56.74;100775.19;5078800;28;20297;-66
2022/09/12 01:34:07;;;;;;;18.07;3.20;;;;;;;22.28;57.15;100779.06;5079668;28;20301;-66
2022/09/12 01:36:58;;;;;;;10.87;3.30;;;;;;;22.35;57.01;100772.44;5059073;28;20282;-64
2022/09/12 01:39:42;;;;;;;13.10;3.57;;;;;;;22.36;56.88;100770.63;5080899;28;20287;-64
2022/09/12 01:42:28;;;;;;;10.83;2.97;;;;;;;22.49;59.10;100758.34;5080515;28;20356;-61
2022/09/12 01:45:15;;;;;;;17.93;3.40;;;;;;;22.65;58.27;100765.44;5079321;28;20283;-68
2022/09/12 01:48:22;;;;;;;8.10;3.10;;;;;;;22.52;57.27;100749.31;5053643;28;20362;-68
2022/09/12 01:51:14;;;;;;;9.60;3.40;;;;;;;22.44;57.02;100746.22;5060477;28;20289;-65
2022/09/12 01:54:02;;;;;;;28.57;4.50;;;;;;;22.13;57.61;100732.84;5037855;28;20294;-67
2022/09/12 01:56:47;;;;;;;24.07;4.27;;;;;;;21.79;58.14;100699.34;5067333;28;20301;-68
2022/09/12 01:59:45;;;;;;;18.43;4.07;;;;;;;22.01;59.23;100738.00;5083932;28;21247;-65
2022/09/12 02:02:27;;;;;;;13.23;3.80;;;;;;;22.20;59.48;100744.03;5081039;28;20298;-66
2022/09/12 02:05:28;;;;;;;12.27;3.40;;;;;;;22.44;59.50;100735.56;5084223;28;20671;-61
2022/09/12 02:08:11;;;;;;;17.07;3.70;;;;;;;22.63;58.71;100746.88;5084059;28;20588;-64
2022/09/12 02:11:12;;;;;;;12.70;3.50;;;;;;;22.44;58.46;100692.97;5081404;28;20309;-67
2022/09/12 02:14:06;;;;;;;26.77;4.27;;;;;;;22.70;57.88;100742.91;5081889;28;21255;-66
2022/09/12 02:17:04;;;;;;;17.63;4.33;;;;;;;22.73;58.54;100745.38;5083359;28;20068;-69
2022/09/12 02:19:52;;;;;;;10.53;3.50;;;;;;;22.60;58.63;100723.09;5084115;28;20052;-69
2022/09/12 02:22:42;;;;;;;17.03;4.30;;;;;;;22.47;57.81;100708.78;5048678;28;20569;-68
2022/09/12 02:25:25;;;;;;;28.40;4.03;;;;;;;22.70;59.03;100758.03;5083511;28;20307;-67
2022/09/12 02:28:05;;;;;;;6.50;3.00;;;;;;;22.76;59.54;100745.19;5083173;28;20302;-66
2022/09/12 02:31:01;;;;;;;5.20;3.17;;;;;;;22.69;58.46;100698.56;5083478;28;20052;-64
2022/09/12 02:34:00;;;;;;;10.90;3.63;;;;;;;22.97;58.91;100723.53;5050330;28;20075;-67
2022/09/12 02:36:50;;;;;;;17.03;3.93;;;;;;;23.18;59.86;100716.06;5083759;28;20301;-67
2022/09/12 02:39:37;;;;;;;12.97;3.27;;;;;;;23.44;59.05;100711.78;5082771;28;20112;-66
2022/09/12 02:42:28;;;;;;;9.47;3.30;;;;;;;23.40;58.29;100720.91;5083870;28;20056;-64
2022/09/12 02:45:11;;;;;;;6.73;3.30;;;;;;;23.28;57.48;100721.69;5082648;28;20044;-69
2022/09/12 02:50:39;;;;;;;11.17;3.60;;;;;;;23.33;58.57;100687.59;5065520;28;20158;-64
2022/09/12 02:53:21;;;;;;;43.13;8.30;;;;;;;23.44;59.03;100695.78;5042137;28;20056;-67
2022/09/12 02:56:15;;;;;;;13.67;3.07;;;;;;;23.48;58.50;100676.78;5083521;28;20151;-63
2022/09/12 02:58:59;;;;;;;12.60;3.60;;;;;;;23.36;58.48;100652.72;5082233;28;20052;-65
2022/09/12 03:02:14;;;;;;;8.60;3.80;;;;;;;23.50;58.68;100663.38;5083283;28;20051;-69
2022/09/12 03:05:14;;;;;;;11.00;3.80;;;;;;;23.69;58.25;100647.91;4988696;28;20065;-67
2022/09/12 03:08:34;;;;;;;31.93;5.03;;;;;;;23.63;58.07;100648.28;5003342;28;20062;-68
2022/09/12 03:11:32;;;;;;;25.80;4.03;;;;;;;23.68;58.12;100646.16;5010898;28;20068;-68
2022/09/12 03:14:41;;;;;;;10.27;3.57;;;;;;;23.72;57.33;100654.00;5011326;28;20109;-66
2022/09/12 03:17:30;;;;;;;33.35;5.45;;;;;;;23.79;58.55;100653.53;4974072;28;20081;-64
2022/09/12 03:20:15;;;;;;;7.87;4.03;;;;;;;23.85;57.11;100653.13;5012342;28;20071;-65
2022/09/12 03:23:16;;;;;;;26.87;5.10;;;;;;;23.85;57.00;100649.59;5012180;28;20057;-68
2022/09/12 03:25:55;;;;;;;30.50;5.23;;;;;;;23.99;56.41;100644.22;5011718;28;20120;-67
2022/09/12 03:28:32;;;;;;;6.97;3.73;;;;;;;23.99;56.08;100633.53;5011619;28;20057;-67
2022/09/12 03:31:34;;;;;;;9.07;3.70;;;;;;;24.32;55.06;100641.06;5011157;28;20062;-66
2022/09/12 03:37:28;;;;;;;9.67;4.07;;;;;;;24.15;54.68;100611.13;4993076;28;20061;-65
2022/09/12 03:40:11;;;;;;;9.20;3.90;;;;;;;24.05;54.77;100595.75;4987211;28;20050;-65
2022/09/12 03:42:45;;;;;;;12.23;4.23;;;;;;;24.02;54.77;100595.94;5074298;28;20102;-63
2022/09/12 03:45:37;;;;;;;12.67;3.60;;;;;;;24.14;54.49;100588.06;5081905;28;20095;-65
2022/09/12 03:48:27;;;;;;;13.13;4.10;;;;;;;24.23;55.00;100606.13;5082059;28;20194;-66
2022/09/12 03:51:03;;;;;;;31.93;5.10;;;;;;;24.26;55.36;100587.22;5081762;28;20064;-66
2022/09/12 03:53:47;;;;;;;24.13;4.80;;;;;;;24.18;55.66;100563.72;5082255;28;20056;-66
2022/09/12 03:56:44;;;;;;;23.30;5.00;;;;;;;24.31;55.50;100579.75;5080701;28;20036;-66
2022/09/12 03:59:54;;;;;;;12.47;4.50;;;;;;;24.04;55.58;100578.03;5081879;28;20044;-67
2022/09/12 04:02:56;;;;;;;6.87;3.80;;;;;;;23.96;56.04;100575.00;5081720;28;20360;-63
2022/09/12 04:05:43;;;;;;;48.43;5.80;;;;;;;24.00;56.47;100581.00;5082028;28;20127;-69
2022/09/12 04:08:26;;;;;;;14.47;4.30;;;;;;;23.85;56.27;100561.53;5080313;28;20117;-64
2022/09/12 04:11:11;;;;;;;11.90;4.27;;;;;;;24.14;57.20;100583.59;5031418;28;20109;-68
2022/09/12 04:14:12;;;;;;;8.93;4.40;;;;;;;24.23;57.52;100587.44;5040304;28;20377;-66
2022/09/12 04:17:07;;;;;;;32.47;5.17;;;;;;;23.75;57.91;100539.94;4997216;28;20229;-65
2022/09/12 04:20:07;;;;;;;16.55;4.13;;;;;;;23.91;58.56;100587.78;5038151;28;20059;-65
2022/09/12 04:22:43;;;;;;;11.67;4.57;;;;;;;23.88;58.18;100580.00;5040192;28;20139;-68
2022/09/12 04:25:27;;;;;;;25.53;5.63;;;;;;;23.50;58.26;100524.69;5039564;28;20073;-66
2022/09/12 04:28:07;;;;;;;11.37;4.47;;;;;;;23.54;58.68;100568.00;5039944;28;20148;-66
2022/09/12 04:30:42;;;;;;;58.80;7.40;;;;;;;23.32;60.23;100558.75;5024126;28;20061;-66
2022/09/12 04:33:26;;;;;;;19.38;5.70;;;;;;;23.27;61.51;100554.69;5005824;28;20217;-65
2022/09/12 04:36:08;;;;;;;17.17;5.00;;;;;;;23.35;61.89;100542.56;5039470;28;20061;-65
2022/09/12 04:38:44;;;;;;;23.37;4.90;;;;;;;23.54;62.35;100536.88;5059375;28;20115;-67
2022/09/12 04:41:27;;;;;;;21.50;5.10;;;;;;;23.63;60.89;100525.56;5081071;28;20078;-65
2022/09/12 04:44:00;;;;;;;45.75;6.53;;;;;;;;;;5080348;28;20061;-66
2022/09/12 04:46:41;;;;;;;8.63;4.00;;;;;;;23.84;62.26;100511.81;5080814;28;20281;-66
2022/09/12 04:49:24;;;;;;;14.03;4.33;;;;;;;23.89;62.59;100526.53;5081444;28;20104;-65
2022/09/12 04:52:01;;;;;;;19.10;5.23;;;;;;;23.74;62.00;100516.03;5039345;28;20048;-65
2022/09/12 04:54:47;;;;;;;13.23;4.20;;;;;;;23.55;62.33;100506.56;5038276;28;20358;-66
2022/09/12 04:57:22;;;;;;;21.20;4.93;;;;;;;23.43;63.19;100507.38;5063350;28;20079;-67
2022/09/12 05:00:07;;;;;;;18.90;5.03;;;;;;;23.18;63.49;100477.00;5081442;28;20099;-62
2022/09/12 05:02:46;;;;;;;16.10;4.37;;;;;;;23.33;63.69;100495.63;5081159;28;20216;-68
2022/09/12 05:05:26;;;;;;;11.40;4.60;;;;;;;23.44;63.37;100493.09;5063481;28;20078;-65
2022/09/12 05:08:21;;;;;;;9.47;5.03;;;;;;;23.56;63.36;100492.25;5080965;28;20079;-67
2022/09/12 05:11:13;;;;;;;20.47;5.37;;;;;;;23.67;63.37;100497.75;5068874;28;20056;-67
2022/09/12 05:14:05;;;;;;;14.10;4.70;;;;;;;23.58;62.49;100501.03;5060438;28;20047;-67
2022/09/12 05:16:43;;;;;;;14.68;5.00;;;;;;;23.61;63.09;100492.84;5060552;28;20072;-62
2022/09/12 05:19:33;;;;;;;12.87;4.97;;;;;;;23.60;63.18;100499.13;5059264;28;20118;-66
2022/09/12 05:22:24;;;;;;;24.23;5.50;;;;;;;23.61;63.07;100499.97;5059930;28;20302;-67
2022/09/12 05:25:09;;;;;;;22.80;6.40;;;;;;;23.46;63.26;100507.16;5044246;28;20064;-65
2022/09/12 05:31:00;;;;;;;78.07;8.43;;;;;;;23.05;64.96;100500.09;5033652;28;20087;-66
2022/09/12 05:33:55;;;;;;;26.00;6.47;;;;;;;22.78;64.99;100522.16;5059828;28;20060;-66
2022/09/12 05:36:34;;;;;;;13.60;4.77;;;;;;;22.26;65.33;100488.13;5029922;28;20057;-66
2022/09/12 05:39:12;;;;;;;15.33;4.50;;;;;;;22.30;66.39;100521.63;5058859;28;20049;-65
2022/09/12 05:42:33;;;;;;;13.50;4.97;;;;;;;22.14;67.62;100515.47;5060222;28;20057;-67
2022/09/12 05:45:14;;;;;;;26.00;6.30;;;;;;;21.98;68.10;100510.22;5059397;28;20064;-65
2022/09/12 05:47:48;;;;;;;;;;;;;;;21.97;68.72;100514.69;5060832;28;20067;-63
2022/09/12 05:50:30;;;;;;;29.80;6.25;;;;;;;21.91;68.70;100504.41;5059350;28;19963;-65
2022/09/12 05:53:18;;;;;;;223.87;18.37;;;;;;;21.64;69.10;100484.78;5060535;28;20396;-65
2022/09/12 05:56:29;;;;;;;20.20;5.17;;;;;;;21.78;69.78;100507.91;5059926;28;20048;-64
2022/09/12 05:59:27;;;;;;;14.70;4.93;;;;;;;21.76;70.12;100523.94;5060286;28;20053;-67
2022/09/12 06:02:08;;;;;;;16.10;4.57;;;;;;;21.66;70.68;100528.09;5058902;28;20068;-65
2022/09/12 06:04:57;;;;;;;10.50;4.57;;;;;;;21.58;71.06;100530.34;5057519;28;20060;-64
2022/09/12 06:07:40;;;;;;;40.23;6.93;;;;;;;21.47;71.17;100533.63;5059796;28;20052;-66
2022/09/12 06:10:22;;;;;;;14.70;4.93;;;;;;;21.40;71.72;100541.09;5066327;28;20430;-65
2022/09/12 06:13:16;;;;;;;21.73;5.40;;;;;;;21.36;71.79;100512.94;5031046;28;20283;-65
2022/09/12 06:16:10;;;;;;;13.17;5.50;;;;;;;21.16;72.52;100478.66;5080230;28;20313;-67
2022/09/12 06:19:17;;;;;;;19.57;5.47;;;;;;;21.42;72.89;100517.94;5049348;28;20295;-63
2022/09/12 06:22:04;;;;;;;14.53;4.93;;;;;;;21.46;71.89;100508.81;5080090;28;20334;-63
2022/09/12 06:24:50;;;;;;;42.90;6.20;;;;;;;21.47;72.01;100515.88;5080197;28;20299;-67
2022/09/12 06:27:43;;;;;;;46.13;7.23;;;;;;;21.42;72.06;100507.31;5080045;28;20473;-66
2022/09/12 06:30:26;;;;;;;58.93;7.10;;;;;;;21.42;72.59;100506.47;5080097;28;20282;-64
2022/09/12 06:33:12;;;;;;;17.87;4.83;;;;;;;21.41;73.08;100510.91;5082459;28;20739;-64
2022/09/12 06:35:54;;;;;;;66.13;8.47;;;;;;;21.36;73.16;100512.94;5035475;28;20314;-64
2022/09/12 06:38:36;;;;;;;36.23;6.33;;;;;;;20.91;73.13;100448.19;5083206;28;20332;-66
2022/09/12 06:41:14;;;;;;;48.60;7.78;;;;;;;21.15;73.53;100514.16;5083139;28;20340;-67
2022/09/12 06:43:57;;;;;;;22.37;4.97;;;;;;;20.80;73.83;100483.31;5028038;28;20070;-68
2022/09/12 06:46:45;;;;;;;35.40;6.23;;;;;;;20.92;74.14;100529.59;5052858;28;20283;-64
2022/09/12 06:49:44;;;;;;;32.77;6.37;;;;;;;20.86;74.95;100533.41;5083729;28;20346;-66
2022/09/12 06:52:37;;;;;;;23.00;5.13;;;;;;;20.80;75.55;100551.50;5020388;28;20299;-66
2022/09/12 06:55:23;;;;;;;26.07;6.17;;;;;;;20.80;75.63;100548.84;5081180;28;20301;-64
2022/09/12 06:58:21;;;;;;;13.70;4.73;;;;;;;20.78;75.82;100548.06;5083424;28;20846;-67
2022/09/12 07:01:12;;;;;;;20.93;5.40;;;;;;;20.74;76.19;100551.81;5082317;28;20313;-67
2022/09/12 07:03:55;;;;;;;14.20;5.70;;;;;;;20.71;76.53;100570.59;5083126;28;21391;-68
2022/09/12 07:06:44;;;;;;;18.77;5.73;;;;;;;20.60;76.80;100582.63;5065890;28;20278;-66
2022/09/12 07:09:25;;;;;;;36.73;5.97;;;;;;;20.50;77.18;100581.38;5038489;28;20576;-67
2022/09/12 07:12:03;;;;;;;22.93;5.60;;;;;;;20.45;77.24;100578.97;5083040;28;20283;-67
2022/09/12 07:14:48;;;;;;;16.73;5.63;;;;;;;20.34;77.33;100548.59;5035797;28;20547;-65
2022/09/12 07:17:38;;;;;;;20.83;5.33;;;;;;;20.17;77.59;100547.69;5049181;28;20310;-67
2022/09/12 07:20:24;;;;;;;23.00;5.97;;;;;;;20.00;77.96;100534.44;5083160;28;20719;-66
2022/09/12 07:23:16;;;;;;;13.53;5.03;;;;;;;19.97;78.54;100545.22;5082559;28;20328;-65
2022/09/12 07:26:14;;;;;;;16.50;5.53;;;;;;;19.78;78.76;100524.91;5080046;28;20283;-65
2022/09/12 07:29:01;;;;;;;18.33;5.10;;;;;;;19.55;79.46;100517.25;5082801;28;20350;-67
2022/09/12 07:32:00;;;;;;;14.47;5.73;;;;;;;19.61;79.96;100556.69;5082666;28;20600;-65
2022/09/12 07:34:40;;;;;;;33.90;6.83;;;;;;;19.60;80.40;100578.84;5064378;28;20282;-66
2022/09/12 07:37:20;;;;;;;55.17;8.13;;;;;;;19.49;80.94;100581.13;5081956;28;20307;-67
2022/09/12 07:40:17;;;;;;;18.53;5.90;;;;;;;18.99;81.18;100528.78;5082739;28;20315;-66
2022/09/12 07:42:57;;;;;;;18.38;6.68;;;;;;;19.24;81.72;100592.91;5040934;28;20287;-66
2022/09/12 07:45:43;;;;;;;32.10;7.13;;;;;;;19.19;81.83;100579.00;5081882;28;20052;-66
2022/09/12 07:48:30;;;;;;;36.73;7.60;;;;;;;18.99;82.33;100552.59;5082491;28;20295;-65
2022/09/12 07:51:13;;;;;;;22.20;6.53;;;;;;;19.05;82.46;100565.59;5082202;28;20279;-67
2022/09/12 07:53:58;;;;;;;22.33;5.47;;;;;;;19.02;82.71;100571.00;5080804;28;20293;-66
2022/09/12 07:56:39;;;;;;;20.53;5.90;;;;;;;18.90;82.95;100557.41;5081692;28;20759;-62
2022/09/12 07:59:16;;;;;;;27.10;6.20;;;;;;;18.93;83.18;100559.06;5082464;28;20350;-64
2022/09/12 08:02:32;;;;;;;13.93;5.90;;;;;;;18.86;82.88;100563.75;5082372;28;20669;-62
2022/09/12 08:05:19;;;;;;;16.67;5.70;;;;;;;18.67;83.24;100536.38;5080386;28;20291;-66
2022/09/12 08:07:58;;;;;;;44.97;7.00;;;;;;;18.79;83.46;100566.78;5082052;28;20615;-66
2022/09/12 08:10:47;;;;;;;18.60;5.57;;;;;;;18.72;83.64;100558.19;5081765;28;20394;-63
2022/09/12 08:13:38;;;;;;;9.97;5.80;;;;;;;18.63;83.98;100542.75;5081855;28;20441;-63
2022/09/12 08:16:20;;;;;;;33.47;6.80;;;;;;;18.64;84.43;100555.06;5080389;28;20313;-63
2022/09/12 08:19:11;;;;;;;20.13;5.93;;;;;;;18.58;84.50;100555.34;5082136;28;20048;-66
2022/09/12 08:21:50;;;;;;;61.00;8.77;;;;;;;18.51;84.60;100555.59;5029536;28;20282;-66
2022/09/12 08:24:30;;;;;;;14.33;6.47;;;;;;;18.54;84.54;100563.41;5048837;28;20348;-66
2022/09/12 08:27:13;;;;;;;27.80;6.40;;;;;;;18.57;84.91;100569.50;5080938;28;20283;-64
2022/09/12 08:30:08;;;;;;;13.37;6.70;;;;;;;18.55;85.13;100577.50;5081616;28;20287;-66
2022/09/12 08:32:52;;;;;;;18.47;5.90;;;;;;;18.50;85.33;100569.78;5081472;28;20496;-66
2022/09/12 08:35:34;;;;;;;20.35;7.03;;;;;;;18.46;85.49;100562.88;5080139;28;20309;-66
2022/09/12 08:38:16;;;;;;;39.63;8.67;;;;;;;18.46;85.62;100557.59;5080775;28;20052;-64
2022/09/12 08:41:27;;;;;;;30.83;7.70;;;;;;;18.37;86.11;100551.84;5081281;28;20282;-64
2022/09/12 08:44:45;;;;;;;16.87;7.50;;;;;;;18.39;86.37;100558.78;5039264;28;20313;-68
2022/09/12 08:47:36;;;;;;;29.92;8.55;;;;;;;18.34;86.68;100571.38;5062854;28;20309;-67
2022/09/12 08:50:29;;;;;;;14.77;7.43;;;;;;;18.24;87.26;100568.25;5081208;28;20075;-66
2022/09/12 08:53:09;;;;;;;15.77;7.90;;;;;;;18.22;87.90;100570.13;5080795;28;20044;-65
2022/09/12 08:55:48;;;;;;;148.13;15.17;;;;;;;18.18;88.30;100583.56;5079565;28;20325;-62
2022/09/12 08:58:53;;;;;;;27.33;9.87;;;;;;;17.97;88.75;100567.69;5074301;28;20595;-63
2022/09/12 09:01:44;;;;;;;15.82;7.70;;;;;;;18.07;89.24;100586.63;5081269;28;20321;-65
2022/09/12 09:08:17;;;;;;;11.80;8.40;;;;;;;17.71;90.14;100522.94;5081030;28;20274;-64
2022/09/12 09:11:04;;;;;;;13.83;7.93;;;;;;;17.97;89.92;100580.91;5080855;28;20293;-62
2022/09/12 09:17:00;;;;;;;16.88;8.80;;;;;;;17.87;90.55;100558.38;5028236;28;20332;-64
2022/09/12 09:19:50;;;;;;;34.60;10.27;;;;;;;17.83;90.76;100560.31;5045720;28;20079;-65
2022/09/12 09:22:38;;;;;;;;;;;;;;;17.87;90.64;100563.66;5047326;28;20343;-63
2022/09/12 09:25:21;;;;;;;14.77;7.97;;;;;;;17.86;90.27;100562.81;5080229;28;19932;-61
2022/09/12 09:28:08;;;;;;;15.20;9.07;;;;;;;17.80;90.87;100562.22;5080147;28;20040;-64
2022/09/12 09:30:48;;;;;;;15.90;8.65;;;;;;;17.72;90.99;100569.56;5078886;28;20283;-64
2022/09/12 09:33:49;;;;;;;19.03;8.77;;;;;;;17.75;91.20;100595.88;5080845;28;20525;-66
2022/09/12 09:36:48;;;;;;;39.87;10.10;;;;;;;17.69;91.62;100595.19;5079537;28;20305;-65
2022/09/12 09:42:47;;;;;;;22.07;9.77;;;;;;;17.60;92.19;100565.66;5079687;28;20306;-63
2022/09/12 09:45:41;;;;;;;22.30;10.20;;;;;;;17.43;92.24;100547.84;5079544;28;21058;-64
2022/09/12 09:48:39;;;;;;;13.23;9.40;;;;;;;17.59;92.41;100580.63;5080559;28;20285;-64
2022/09/12 09:51:32;;;;;;;16.57;10.03;;;;;;;17.27;92.80;100525.59;5079568;28;20052;-63
2022/09/12 09:54:27;;;;;;;33.25;10.88;;;;;;;17.53;93.30;100569.47;5078288;28;20279;-64
2022/09/12 09:57:44;;;;;;;14.33;9.03;;;;;;;17.52;93.08;100573.88;5078659;28;20380;-63
2022/09/12 10:00:37;;;;;;;22.70;10.13;;;;;;;17.39;93.14;100562.09;5079303;28;20565;-65
2022/09/12 10:03:36;;;;;;;15.57;9.30;;;;;;;17.25;93.40;100534.44;5080410;28;20291;-64
2022/09/12 10:06:34;;;;;;;19.87;10.00;;;;;;;17.42;93.76;100557.56;5080498;28;20363;-66
2022/09/12 10:09:36;;;;;;;20.80;8.73;;;;;;;17.36;93.82;100551.66;5081928;28;20889;-65
2022/09/12 10:12:40;;;;;;;25.47;10.17;;;;;;;17.41;93.84;100576.09;5083199;28;20291;-68
2022/09/12 10:15:37;;;;;;;28.83;10.77;;;;;;;17.38;94.19;100576.22;5062992;28;20586;-66
2022/09/12 10:18:39;;;;;;;36.23;10.33;;;;;;;17.20;94.62;100565.47;5083714;28;20313;-65
2022/09/12 10:21:31;;;;;;;22.30;9.77;;;;;;;17.26;94.69;100567.00;5081753;28;20330;-70
2022/09/12 10:24:24;;;;;;;19.93;8.80;;;;;;;16.92;94.86;100509.34;5083913;28;20302;-65
2022/09/12 10:27:21;;;;;;;20.17;9.57;;;;;;;17.31;95.34;100580.03;5083046;28;20294;-64
2022/09/12 10:30:07;;;;;;;17.37;10.10;;;;;;;17.15;95.34;100550.72;5083719;28;20306;-66
2022/09/12 10:32:50;;;;;;;21.33;10.27;;;;;;;17.31;95.57;100574.75;5082966;28;20324;-66
2022/09/12 10:35:53;;;;;;;15.43;10.30;;;;;;;17.35;95.73;100581.63;5083113;28;20294;-65
2022/09/12 10:38:33;;;;;;;11.80;9.10;;;;;;;17.34;95.58;100586.03;5039617;28;20098;-64
2022/09/12 10:41:15;;;;;;;25.63;10.10;;;;;;;17.35;95.95;100586.91;5082929;28;20283;-62
2022/09/12 10:50:33;;;;;;;13.90;10.13;;;;;;;17.35;95.78;100566.63;5081893;28;20291;-69
2022/09/12 10:53:34;;;;;;;17.43;10.03;;;;;;;17.05;95.78;100531.75;5081527;28;20287;-68
2022/09/12 10:56:31;;;;;;;16.23;9.33;;;;;;;17.28;96.12;100570.44;5079339;28;20294;-69
2022/09/12 10:59:24;;;;;;;;;;;;;;;17.25;96.38;100566.13;5083486;28;20362;-67
2022/09/12 11:02:33;;;;;;;20.47;10.27;;;;;;;17.22;96.87;100566.25;5083105;28;19935;-65
2022/09/12 11:05:24;;;;;;;16.48;8.93;;;;;;;17.15;97.09;100559.50;5057454;28;20324;-68
2022/09/12 11:08:13;;;;;;;17.23;9.43;;;;;;;17.23;97.11;100573.25;5079741;28;20115;-69
2022/09/12 11:11:00;;;;;;;14.43;10.20;;;;;;;17.24;97.26;100564.41;5033076;28;20676;-66
2022/09/12 11:14:02;;;;;;;19.90;9.97;;;;;;;17.22;97.61;100549.53;5074660;28;20297;-68
2022/09/12 11:16:59;;;;;;;15.53;10.00;;;;;;;17.29;97.19;100550.16;5023105;28;20354;-65
2022/09/12 11:20:18;;;;;;;13.40;8.50;;;;;;;17.30;96.91;100557.16;5062312;28;20310;-67
2022/09/12 11:23:38;;;;;;;20.13;9.43;;;;;;;17.31;96.98;100559.75;5047303;28;20325;-66
2022/09/12 11:26:31;;;;;;;15.70;9.53;;;;;;;17.12;97.00;100530.56;5067211;28;20297;-67
2022/09/12 11:29:28;;;;;;;15.90;10.20;;;;;;;17.32;97.14;100555.31;5038802;28;20287;-69
2022/09/12 11:32:47;;;;;;;13.87;10.03;;;;;;;17.29;97.02;100550.16;5068011;28;20091;-70
2022/09/12 11:35:36;;;;;;;22.45;10.95;;;;;;;17.28;97.13;100543.19;5076491;28;20313;-66
2022/09/12 11:38:48;;;;;;;17.63;9.63;;;;;;;17.32;97.18;100550.03;5034613;28;20060;-66
2022/09/12 11:41:53;;;;;;;16.93;8.70;;;;;;;17.30;97.10;100541.31;5069759;28;20311;-65
2022/09/12 11:44:40;;;;;;;18.37;9.97;;;;;;;17.32;97.13;100544.75;5044864;28;20385;-65
2022/09/12 11:47:24;;;;;;;17.47;9.80;;;;;;;17.18;97.10;100518.91;5020807;28;20310;-68
2022/09/12 11:50:15;;;;;;;18.43;9.47;;;;;;;17.33;97.09;100541.22;5074489;28;20283;-67
2022/09/12 11:52:56;;;;;;;15.70;9.50;;;;;;;17.31;97.15;100543.03;5075245;28;20336;-65
2022/09/12 11:55:58;;;;;;;13.53;9.47;;;;;;;17.27;97.36;100542.28;5076695;28;20306;-69
2022/09/12 11:58:45;;;;;;;12.07;8.87;;;;;;;17.22;97.32;100541.63;5049017;28;20315;-66
2022/09/12 12:01:37;;;;;;;13.77;8.70;;;;;;;17.24;97.54;100543.28;5075104;28;20607;-68
2022/09/12 12:04:32;;;;;;;11.93;8.57;;;;;;;17.22;97.50;100545.13;5068769;28;20291;-66
2022/09/12 12:07:20;;;;;;;16.13;8.73;;;;;;;17.24;97.39;100547.69;5035235;28;20589;-68
2022/09/12 12:10:04;;;;;;;11.52;8.93;;;;;;;17.23;97.50;100538.94;5033527;28;20295;-65
2022/09/12 12:12:58;;;;;;;17.73;9.13;;;;;;;17.21;97.46;100540.75;5093141;28;20064;-67
2022/09/12 12:15:40;;;;;;;15.63;9.53;;;;;;;17.20;97.58;100538.19;5099696;28;20296;-64
2022/09/12 12:18:29;;;;;;;14.70;8.70;;;;;;;17.20;97.74;100541.69;5044500;28;20283;-68
2022/09/12 12:21:27;;;;;;;14.33;8.80;;;;;;;17.20;97.98;100536.41;5081330;28;20350;-62
2022/09/12 12:24:17;;;;;;;10.07;8.37;;;;;;;17.01;98.01;100501.94;5082122;28;20532;-64
2022/09/12 12:27:12;;;;;;;13.30;8.60;;;;;;;17.18;98.38;100532.97;5080433;28;20287;-63
2022/09/12 12:30:07;;;;;;;12.97;9.00;;;;;;;17.20;98.35;100536.41;5081260;28;20318;-63
2022/09/12 12:33:01;;;;;;;18.53;8.97;;;;;;;17.18;98.33;100543.53;5051510;28;20302;-66
2022/09/12 12:36:04;;;;;;;13.83;8.73;;;;;;;17.12;98.47;100527.91;5081489;28;20670;-64
2022/09/12 12:38:56;;;;;;;13.07;8.13;;;;;;;17.14;98.52;100517.31;5081625;28;20319;-64
2022/09/12 12:41:51;;;;;;;16.27;9.33;;;;;;;17.01;98.79;100483.47;5081391;28;20279;-68
2022/09/12 12:44:54;;;;;;;15.20;9.57;;;;;;;17.11;99.04;100510.34;5081637;28;20283;-68
2022/09/12 12:47:35;;;;;;;17.13;9.00;;;;;;;17.10;99.25;100508.66;5081187;28;20275;-64
2022/09/12 12:50:28;;;;;;;32.23;10.47;;;;;;;17.13;99.52;100512.94;5095708;28;20310;-65
2022/09/12 12:53:12;;;;;;;12.67;9.47;;;;;;;17.07;99.55;100498.19;5080652;28;20283;-64
2022/09/12 12:56:31;;;;;;;16.50;9.37;;;;;;;17.09;99.96;100506.91;5080776;28;20511;-64
2022/09/12 12:59:15;;;;;;;13.37;8.57;;;;;;;17.10;100.00;100503.38;5081114;28;20306;-68
2022/09/12 13:02:07;;;;;;;13.50;8.50;;;;;;;17.12;100.00;100506.78;5081218;28;20297;-68
2022/09/12 13:04:58;;;;;;;16.90;9.43;;;;;;;17.08;100.00;100494.66;5079414;28;20599;-66
2022/09/12 13:07:38;;;;;;;14.37;9.23;;;;;;;17.01;100.00;100479.97;5077842;28;20283;-68
2022/09/12 13:10:37;;;;;;;12.33;8.40;;;;;;;17.09;100.00;100509.56;5079874;28;20630;-66
2022/09/12 13:13:28;;;;;;;18.73;9.37;;;;;;;17.10;100.00;100508.66;5060892;28;20290;-65
2022/09/12 13:16:16;;;;;;;16.13;8.77;;;;;;;16.92;100.00;100475.03;5059418;28;20306;-66
2022/09/12 13:22:01;;;;;;;19.47;9.50;;;;;;;17.06;100.00;100503.56;5056036;28;20339;-66
2022/09/12 13:24:51;;;;;;;14.07;9.13;;;;;;;17.04;100.00;100499.16;5059650;28;20283;-69
2022/09/12 13:27:33;;;;;;;18.57;8.97;;;;;;;17.06;100.00;100506.19;5061049;28;20596;-67
2022/09/12 13:30:19;;;;;;;15.73;9.03;;;;;;;16.82;100.00;100456.06;5060130;28;20283;-68
2022/09/12 13:33:00;;;;;;;13.97;8.50;;;;;;;17.08;100.00;100505.22;5058487;28;20516;-67